Terminal Aerodrome Forecast
Issued by NWS St Louis, MO

Home | Current Version | Previous Version | Text Only | Print | Product List | Glossary On
Versions: 1 2 3 4 5 6 7 8 9 10 11 12 13 14 15 16 17 18 19 20 21 22 23 24 25 26 27
000
FTUS43 KLSX 010500
TAFSTL
TAF
KSTL 010536Z 0106/0212 10005KT 1 1/2SM -SN OVC020
      TEMPO 0106/0110 3/4SM -SN BR OVC010
     FM011000 VRB04KT 2SM -SN BR OVC010
     FM011300 VRB04KT 3SM -SN BR OVC010
     FM011800 30006KT 6SM -SN OVC015
     FM012100 31006KT P6SM OVC018
     FM020300 32006KT P6SM SCT020 BKN120=

USA.gov is the U.S. government's official web portal to all federal, state and local government web resources and services.